sensor_id;sensor_type;location;lat;lon;timestamp;pressure;altitude;pressure_sealevel;temperature;humidity
40490;BME280;26196;52.302;10.572;2024-02-21T00:03:56;101118.50;;;12.87;59.86
40490;BME280;26196;52.302;10.572;2024-02-21T00:07:59;101168.53;;;13.17;60.43
40490;BME280;26196;52.302;10.572;2024-02-21T00:12:01;101155.44;;;13.13;60.17
40490;BME280;26196;52.302;10.572;2024-02-21T00:16:03;101085.31;;;12.84;60.34
40490;BME280;26196;52.302;10.572;2024-02-21T00:20:05;101144.78;;;13.20;59.94
40490;BME280;26196;52.302;10.572;2024-02-21T00:24:07;101158.81;;;13.19;59.25
40490;BME280;26196;52.302;10.572;2024-02-21T00:28:08;101126.16;;;12.96;60.21
40490;BME280;26196;52.302;10.572;2024-02-21T00:32:10;101138.81;;;13.13;59.90
40490;BME280;26196;52.302;10.572;2024-02-21T00:36:11;101089.63;;;12.87;60.33
40490;BME280;26196;52.302;10.572;2024-02-21T00:40:14;101101.47;;;13.02;59.85
40490;BME280;26196;52.302;10.572;2024-02-21T00:44:21;101081.63;;;12.91;59.94
40490;BME280;26196;52.302;10.572;2024-02-21T00:48:23;101071.31;;;12.84;59.63
40490;BME280;26196;52.302;10.572;2024-02-21T00:52:24;101078.38;;;12.82;59.85
40490;BME280;26196;52.302;10.572;2024-02-21T00:56:26;101118.75;;;13.10;59.58
40490;BME280;26196;52.302;10.572;2024-02-21T01:00:27;101124.75;;;13.16;59.30
40490;BME280;26196;52.302;10.572;2024-02-21T01:04:29;101065.09;;;12.88;59.82
40490;BME280;26196;52.302;10.572;2024-02-21T01:08:30;101071.88;;;12.95;59.39
40490;BME280;26196;52.302;10.572;2024-02-21T01:12:32;101099.28;;;13.18;59.51
40490;BME280;26196;52.302;10.572;2024-02-21T01:16:34;101089.94;;;13.07;59.39
40490;BME280;26196;52.302;10.572;2024-02-21T01:20:35;101081.22;;;13.05;59.34
40490;BME280;26196;52.302;10.572;2024-02-21T01:24:37;101080.56;;;12.97;59.37
40490;BME280;26196;52.302;10.572;2024-02-21T01:28:40;101069.88;;;13.03;58.96
40490;BME280;26196;52.302;10.572;2024-02-21T01:32:41;101079.59;;;13.01;59.30
40490;BME280;26196;52.302;10.572;2024-02-21T01:36:43;101022.38;;;12.80;59.06
40490;BME280;26196;52.302;10.572;2024-02-21T01:40:44;101019.91;;;12.75;59.20
40490;BME280;26196;52.302;10.572;2024-02-21T01:44:46;101056.75;;;13.03;59.59
40490;BME280;26196;52.302;10.572;2024-02-21T01:48:48;101061.84;;;13.09;59.39
40490;BME280;26196;52.302;10.572;2024-02-21T01:52:50;101014.69;;;12.74;59.19
40490;BME280;26196;52.302;10.572;2024-02-21T01:56:52;101006.13;;;12.67;59.27
40490;BME280;26196;52.302;10.572;2024-02-21T02:00:56;101044.72;;;12.96;58.67
40490;BME280;26196;52.302;10.572;2024-02-21T02:04:58;101035.91;;;12.97;59.56
40490;BME280;26196;52.302;10.572;2024-02-21T02:09:00;100995.38;;;12.75;59.07
40490;BME280;26196;52.302;10.572;2024-02-21T02:13:02;101021.91;;;12.97;59.19
40490;BME280;26196;52.302;10.572;2024-02-21T02:17:03;101004.69;;;12.86;59.11
40490;BME280;26196;52.302;10.572;2024-02-21T02:21:13;101019.16;;;13.01;59.32
40490;BME280;26196;52.302;10.572;2024-02-21T02:25:15;101013.00;;;13.01;59.19
40490;BME280;26196;52.302;10.572;2024-02-21T02:29:17;101012.16;;;13.00;59.68
40490;BME280;26196;52.302;10.572;2024-02-21T02:33:19;100981.75;;;12.93;59.10
40490;BME280;26196;52.302;10.572;2024-02-21T02:37:20;100946.28;;;12.77;59.45
40490;BME280;26196;52.302;10.572;2024-02-21T02:41:22;100920.44;;;12.63;58.87
40490;BME280;26196;52.302;10.572;2024-02-21T02:45:24;100924.66;;;12.68;59.28
40490;BME280;26196;52.302;10.572;2024-02-21T02:49:27;100976.09;;;13.05;59.38
40490;BME280;26196;52.302;10.572;2024-02-21T02:53:29;100968.31;;;13.02;59.42
40490;BME280;26196;52.302;10.572;2024-02-21T02:57:30;100923.25;;;12.86;59.52
40490;BME280;26196;52.302;10.572;2024-02-21T03:01:34;100876.75;;;12.60;58.83
40490;BME280;26196;52.302;10.572;2024-02-21T03:05:37;100881.88;;;12.65;59.72
40490;BME280;26196;52.302;10.572;2024-02-21T03:09:38;100886.06;;;12.70;59.74
40490;BME280;26196;52.302;10.572;2024-02-21T03:13:40;100925.53;;;12.97;59.20
40490;BME280;26196;52.302;10.572;2024-02-21T03:17:41;100915.94;;;12.96;59.33
40490;BME280;26196;52.302;10.572;2024-02-21T03:21:43;100914.03;;;13.01;59.29
40490;BME280;26196;52.302;10.572;2024-02-21T03:25:45;100859.09;;;12.65;59.16
40490;BME280;26196;52.302;10.572;2024-02-21T03:29:47;100913.16;;;13.01;59.40
40490;BME280;26196;52.302;10.572;2024-02-21T03:33:49;100891.47;;;12.94;59.33
40490;BME280;26196;52.302;10.572;2024-02-21T03:37:50;100852.06;;;12.66;59.99
40490;BME280;26196;52.302;10.572;2024-02-21T03:41:52;100892.97;;;13.03;59.56
40490;BME280;26196;52.302;10.572;2024-02-21T03:45:53;100840.50;;;12.72;59.45
40490;BME280;26196;52.302;10.572;2024-02-21T03:49:55;100832.00;;;12.63;59.74
40490;BME280;26196;52.302;10.572;2024-02-21T03:53:57;100825.66;;;12.70;59.07
40490;BME280;26196;52.302;10.572;2024-02-21T03:57:58;100821.16;;;12.74;59.57
40490;BME280;26196;52.302;10.572;2024-02-21T04:02:00;100807.19;;;12.74;60.12
40490;BME280;26196;52.302;10.572;2024-02-21T04:06:03;100767.06;;;12.68;59.77
40490;BME280;26196;52.302;10.572;2024-02-21T04:10:05;100838.69;;;13.02;59.51
40490;BME280;26196;52.302;10.572;2024-02-21T04:14:06;100842.06;;;13.05;59.70
40490;BME280;26196;52.302;10.572;2024-02-21T04:18:08;100802.84;;;12.73;59.75
40490;BME280;26196;52.302;10.572;2024-02-21T04:22:10;100823.84;;;12.73;59.99
40490;BME280;26196;52.302;10.572;2024-02-21T04:26:11;100834.16;;;12.79;59.81
40490;BME280;26196;52.302;10.572;2024-02-21T04:30:13;100854.81;;;12.91;59.63
40490;BME280;26196;52.302;10.572;2024-02-21T04:34:15;100811.69;;;12.70;60.27
40490;BME280;26196;52.302;10.572;2024-02-21T04:38:16;100891.88;;;13.10;59.03
40490;BME280;26196;52.302;10.572;2024-02-21T04:42:18;100843.94;;;12.74;59.94
40490;BME280;26196;52.302;10.572;2024-02-21T04:46:19;100862.69;;;12.91;60.17
40490;BME280;26196;52.302;10.572;2024-02-21T04:50:21;100886.59;;;13.10;59.53
40490;BME280;26196;52.302;10.572;2024-02-21T04:54:23;100852.59;;;13.05;59.73
40490;BME280;26196;52.302;10.572;2024-02-21T04:58:24;100811.34;;;12.81;60.23
40490;BME280;26196;52.302;10.572;2024-02-21T05:02:27;100845.72;;;13.01;59.54
40490;BME280;26196;52.302;10.572;2024-02-21T05:06:29;100852.03;;;12.96;59.85
40490;BME280;26196;52.302;10.572;2024-02-21T05:10:31;100828.81;;;12.82;59.42
40490;BME280;26196;52.302;10.572;2024-02-21T05:14:33;100874.47;;;13.06;59.16
40490;BME280;26196;52.302;10.572;2024-02-21T05:18:34;100880.50;;;13.09;59.52
40490;BME280;26196;52.302;10.572;2024-02-21T05:22:36;100859.91;;;12.96;59.29
40490;BME280;26196;52.302;10.572;2024-02-21T05:26:37;100835.00;;;12.79;59.65
40490;BME280;26196;52.302;10.572;2024-02-21T05:30:39;100856.41;;;12.95;59.70
40490;BME280;26196;52.302;10.572;2024-02-21T05:34:42;100865.81;;;13.02;59.68
40490;BME280;26196;52.302;10.572;2024-02-21T05:38:44;100811.50;;;12.75;59.55
40490;BME280;26196;52.302;10.572;2024-02-21T05:42:46;100850.97;;;13.01;59.22
40490;BME280;26196;52.302;10.572;2024-02-21T05:46:47;100818.97;;;12.88;59.32
40490;BME280;26196;52.302;10.572;2024-02-21T05:50:49;100813.88;;;12.84;59.19
40490;BME280;26196;52.302;10.572;2024-02-21T05:54:52;100799.91;;;12.82;59.14
40490;BME280;26196;52.302;10.572;2024-02-21T05:58:53;100828.31;;;12.97;59.32
40490;BME280;26196;52.302;10.572;2024-02-21T06:02:55;100810.41;;;12.82;59.42
40490;BME280;26196;52.302;10.572;2024-02-21T06:06:57;100843.81;;;13.06;58.97
40490;BME280;26196;52.302;10.572;2024-02-21T06:10:58;100833.28;;;13.06;59.46
40490;BME280;26196;52.302;10.572;2024-02-21T06:15:00;100822.78;;;13.06;59.61
40490;BME280;26196;52.302;10.572;2024-02-21T06:19:02;100834.88;;;13.12;59.65
40490;BME280;26196;52.302;10.572;2024-02-21T06:23:08;100764.31;;;12.73;59.25
40490;BME280;26196;52.302;10.572;2024-02-21T06:27:09;100825.41;;;13.06;59.59
40490;BME280;26196;52.302;10.572;2024-02-21T06:31:13;100826.19;;;13.08;58.97
40490;BME280;26196;52.302;10.572;2024-02-21T06:35:15;100760.72;;;12.76;59.95
40490;BME280;26196;52.302;10.572;2024-02-21T06:39:16;100829.53;;;13.13;59.32
40490;BME280;26196;52.302;10.572;2024-02-21T06:43:20;100769.41;;;12.78;58.94
40490;BME280;26196;52.302;10.572;2024-02-21T06:47:21;100746.91;;;12.69;59.06
40490;BME280;26196;52.302;10.572;2024-02-21T06:51:23;100770.16;;;12.81;59.29
40490;BME280;26196;52.302;10.572;2024-02-21T06:55:26;100762.31;;;12.80;59.26
40490;BME280;26196;52.302;10.572;2024-02-21T06:59:28;100811.13;;;13.13;59.06
40490;BME280;26196;52.302;10.572;2024-02-21T07:03:29;100825.09;;;13.16;59.00
40490;BME280;26196;52.302;10.572;2024-02-21T07:07:31;100810.44;;;13.08;59.21
40490;BME280;26196;52.302;10.572;2024-02-21T07:11:33;100807.97;;;13.04;59.29
40490;BME280;26196;52.302;10.572;2024-02-21T07:15:34;100752.94;;;12.73;58.94
40490;BME280;26196;52.302;10.572;2024-02-21T07:19:37;100798.44;;;13.01;59.04
40490;BME280;26196;52.302;10.572;2024-02-21T07:23:42;100771.94;;;12.81;59.06
40490;BME280;26196;52.302;10.572;2024-02-21T07:27:44;100771.22;;;12.76;58.59
40490;BME280;26196;52.302;10.572;2024-02-21T07:31:46;100769.59;;;12.72;59.55
40490;BME280;26196;52.302;10.572;2024-02-21T07:35:50;100824.38;;;13.10;59.26
40490;BME280;26196;52.302;10.572;2024-02-21T07:39:52;100814.09;;;13.04;59.03
40490;BME280;26196;52.302;10.572;2024-02-21T07:43:53;100771.22;;;12.76;59.35
40490;BME280;26196;52.302;10.572;2024-02-21T07:47:55;100774.56;;;12.81;58.79
40490;BME280;26196;52.302;10.572;2024-02-21T07:51:56;100784.84;;;12.87;58.90
40490;BME280;26196;52.302;10.572;2024-02-21T07:55:58;100820.75;;;13.14;58.66
40490;BME280;26196;52.302;10.572;2024-02-21T08:00:00;100815.69;;;13.08;59.30
40490;BME280;26196;52.302;10.572;2024-02-21T08:04:02;100810.44;;;13.08;59.55
40490;BME280;26196;52.302;10.572;2024-02-21T08:08:06;100788.19;;;12.92;59.43
40490;BME280;26196;52.302;10.572;2024-02-21T08:12:09;100806.13;;;13.06;59.33
40490;BME280;26196;52.302;10.572;2024-02-21T08:16:11;100811.34;;;13.07;59.61
40490;BME280;26196;52.302;10.572;2024-02-21T08:20:13;100777.19;;;12.81;59.25
40490;BME280;26196;52.302;10.572;2024-02-21T08:24:15;100753.13;;;12.66;58.90
40490;BME280;26196;52.302;10.572;2024-02-21T08:28:16;100817.44;;;13.09;59.54
40490;BME280;26196;52.302;10.572;2024-02-21T08:32:18;100778.03;;;12.81;59.12
40490;BME280;26196;52.302;10.572;2024-02-21T08:36:20;100824.47;;;13.09;58.65
40490;BME280;26196;52.302;10.572;2024-02-21T08:40:21;100824.50;;;13.07;59.21
40490;BME280;26196;52.302;10.572;2024-02-21T08:44:23;100775.28;;;12.86;59.57
40490;BME280;26196;52.302;10.572;2024-02-21T08:48:29;100790.69;;;12.97;59.17
40490;BME280;26196;52.302;10.572;2024-02-21T08:52:30;100758.81;;;12.81;59.48
40490;BME280;26196;52.302;10.572;2024-02-21T08:56:32;100795.47;;;13.10;59.43
40490;BME280;26196;52.302;10.572;2024-02-21T09:00:34;100744.00;;;12.78;59.07
40490;BME280;26196;52.302;10.572;2024-02-21T09:04:35;100742.19;;;12.80;60.12
40490;BME280;26196;52.302;10.572;2024-02-21T09:08:37;100780.81;;;13.03;59.02
40490;BME280;26196;52.302;10.572;2024-02-21T09:12:39;100796.34;;;13.11;59.48
40490;BME280;26196;52.302;10.572;2024-02-21T09:16:41;100740.19;;;12.87;59.63
40490;BME280;26196;52.302;10.572;2024-02-21T09:20:43;100736.72;;;12.86;59.69
40490;BME280;26196;52.302;10.572;2024-02-21T09:24:44;100733.94;;;12.91;59.32
40490;BME280;26196;52.302;10.572;2024-02-21T09:28:46;100779.47;;;13.18;59.02
40490;BME280;26196;52.302;10.572;2024-02-21T09:32:48;100774.28;;;13.17;60.09
40490;BME280;26196;52.302;10.572;2024-02-21T09:36:50;100782.03;;;13.20;60.22
40490;BME280;26196;52.302;10.572;2024-02-21T09:40:59;100748.44;;;13.03;59.64
40490;BME280;26196;52.302;10.572;2024-02-21T09:45:08;100737.38;;;12.93;59.96
40490;BME280;26196;52.302;10.572;2024-02-21T09:49:31;100804.50;;;13.30;59.92
40490;BME280;26196;52.302;10.572;2024-02-21T09:53:40;100779.94;;;13.31;59.62
40490;BME280;26196;52.302;10.572;2024-02-21T09:57:49;100776.50;;;13.29;60.50
40490;BME280;26196;52.302;10.572;2024-02-21T10:01:51;100740.28;;;13.10;60.25
40490;BME280;26196;52.302;10.572;2024-02-21T10:05:53;100762.34;;;13.33;59.89
40490;BME280;26196;52.302;10.572;2024-02-21T10:10:04;100772.03;;;13.31;60.31
40490;BME280;26196;52.302;10.572;2024-02-21T10:14:08;100754.91;;;13.19;59.43
40490;BME280;26196;52.302;10.572;2024-02-21T10:18:10;100719.47;;;13.04;59.71
40490;BME280;26196;52.302;10.572;2024-02-21T10:22:12;100736.56;;;13.18;59.79
40490;BME280;26196;52.302;10.572;2024-02-21T10:26:18;100704.78;;;12.99;60.28
40490;BME280;26196;52.302;10.572;2024-02-21T10:30:20;100744.94;;;13.29;60.08
40490;BME280;26196;52.302;10.572;2024-02-21T10:34:22;100742.41;;;13.26;60.44
40490;BME280;26196;52.302;10.572;2024-02-21T10:38:23;100740.50;;;13.31;60.42
40490;BME280;26196;52.302;10.572;2024-02-21T10:42:28;100749.31;;;13.30;60.26
40490;BME280;26196;52.302;10.572;2024-02-21T10:46:37;100759.38;;;13.42;59.94
40490;BME280;26196;52.302;10.572;2024-02-21T10:51:12;100761.16;;;13.42;59.63
40490;BME280;26196;52.302;10.572;2024-02-21T10:55:20;100742.72;;;13.43;59.52
40490;BME280;26196;52.302;10.572;2024-02-21T10:59:25;100713.28;;;13.32;59.98
40490;BME280;26196;52.302;10.572;2024-02-21T11:03:27;100653.72;;;13.06;60.34
40490;BME280;26196;52.302;10.572;2024-02-21T11:07:30;100648.38;;;13.09;59.89
40490;BME280;26196;52.302;10.572;2024-02-21T11:11:37;100714.59;;;13.45;59.72
40490;BME280;26196;52.302;10.572;2024-02-21T11:15:41;100626.66;;;13.04;59.57
40490;BME280;26196;52.302;10.572;2024-02-21T11:19:43;100612.56;;;13.06;59.94
40490;BME280;26196;52.302;10.572;2024-02-21T11:23:55;100603.75;;;13.07;59.83
40490;BME280;26196;52.302;10.572;2024-02-21T11:28:03;100613.03;;;13.18;59.54
40490;BME280;26196;52.302;10.572;2024-02-21T11:32:05;100601.69;;;13.16;59.63
40490;BME280;26196;52.302;10.572;2024-02-21T11:36:10;100643.38;;;13.51;59.59
40490;BME280;26196;52.302;10.572;2024-02-21T11:40:12;100588.34;;;13.22;59.49
40490;BME280;26196;52.302;10.572;2024-02-21T11:44:14;100630.25;;;13.50;60.01
40490;BME280;26196;52.302;10.572;2024-02-21T11:48:15;100599.91;;;13.41;59.93
40490;BME280;26196;52.302;10.572;2024-02-21T11:52:17;100558.56;;;13.21;59.55
40490;BME280;26196;52.302;10.572;2024-02-21T11:56:20;100590.13;;;13.45;59.69
40490;BME280;26196;52.302;10.572;2024-02-21T12:00:25;100601.97;;;13.56;59.88
40490;BME280;26196;52.302;10.572;2024-02-21T12:04:27;100586.31;;;13.53;59.73
40490;BME280;26196;52.302;10.572;2024-02-21T12:08:43;100570.69;;;13.49;59.36
40490;BME280;26196;52.302;10.572;2024-02-21T12:12:45;100561.13;;;13.48;60.03
40490;BME280;26196;52.302;10.572;2024-02-21T12:16:46;100579.88;;;13.61;59.76
40490;BME280;26196;52.302;10.572;2024-02-21T12:20:49;100518.88;;;13.29;59.77
40490;BME280;26196;52.302;10.572;2024-02-21T12:24:51;100566.56;;;13.65;59.47
40490;BME280;26196;52.302;10.572;2024-02-21T12:28:53;100561.31;;;13.65;59.74
40490;BME280;26196;52.302;10.572;2024-02-21T12:32:55;100535.41;;;13.54;59.73
40490;BME280;26196;52.302;10.572;2024-02-21T12:36:58;100496.75;;;13.34;59.74
40490;BME280;26196;52.302;10.572;2024-02-21T12:41:00;100531.66;;;13.62;59.92
40490;BME280;26196;52.302;10.572;2024-02-21T12:45:02;100540.34;;;13.64;59.58
40490;BME280;26196;52.302;10.572;2024-02-21T12:49:05;100487.16;;;13.33;59.94
40490;BME280;26196;52.302;10.572;2024-02-21T12:53:07;100472.06;;;13.39;60.09
40490;BME280;26196;52.302;10.572;2024-02-21T12:57:23;100458.91;;;13.39;59.92
40490;BME280;26196;52.302;10.572;2024-02-21T13:01:27;100458.75;;;13.43;59.47
40490;BME280;26196;52.302;10.572;2024-02-21T13:05:29;100507.41;;;13.75;59.38
40490;BME280;26196;52.302;10.572;2024-02-21T13:09:33;100479.25;;;13.55;58.82
40490;BME280;26196;52.302;10.572;2024-02-21T13:13:35;100508.13;;;13.79;59.21
40490;BME280;26196;52.302;10.572;2024-02-21T13:17:36;100515.94;;;13.82;59.03
40490;BME280;26196;52.302;10.572;2024-02-21T13:21:38;100517.81;;;13.78;59.60
40490;BME280;26196;52.302;10.572;2024-02-21T13:25:40;100444.66;;;13.44;59.21
40490;BME280;26196;52.302;10.572;2024-02-21T13:29:41;100494.06;;;13.80;60.04
40490;BME280;26196;52.302;10.572;2024-02-21T13:33:43;100441.00;;;13.48;59.57
40490;BME280;26196;52.302;10.572;2024-02-21T13:37:47;100479.44;;;13.73;59.89
40490;BME280;26196;52.302;10.572;2024-02-21T13:41:51;100483.38;;;13.85;59.18
40490;BME280;26196;52.302;10.572;2024-02-21T13:45:57;100459.63;;;13.86;59.28
40490;BME280;26196;52.302;10.572;2024-02-21T13:50:02;100344.63;;;13.25;58.63
40490;BME280;26196;52.302;10.572;2024-02-21T13:54:12;100384.50;;;13.59;59.36
40490;BME280;26196;52.302;10.572;2024-02-21T13:58:16;100416.84;;;13.81;59.30
40490;BME280;26196;52.302;10.572;2024-02-21T14:02:18;100417.38;;;13.89;59.34
40490;BME280;26196;52.302;10.572;2024-02-21T14:06:20;100348.56;;;13.57;59.22
40490;BME280;26196;52.302;10.572;2024-02-21T14:10:22;100369.50;;;13.81;58.85
40490;BME280;26196;52.302;10.572;2024-02-21T14:14:24;100313.50;;;13.59;58.87
40490;BME280;26196;52.302;10.572;2024-02-21T14:18:25;100367.28;;;13.92;58.37
40490;BME280;26196;52.302;10.572;2024-02-21T14:22:27;100289.81;;;13.59;58.92
40490;BME280;26196;52.302;10.572;2024-02-21T14:26:29;100344.38;;;13.94;58.96
40490;BME280;26196;52.302;10.572;2024-02-21T14:30:32;100335.81;;;13.89;58.36
40490;BME280;26196;52.302;10.572;2024-02-21T14:34:34;100338.13;;;13.97;59.10
40490;BME280;26196;52.302;10.572;2024-02-21T14:38:35;100281.66;;;13.65;59.37
40490;BME280;26196;52.302;10.572;2024-02-21T14:42:37;100310.09;;;13.96;58.67
40490;BME280;26196;52.302;10.572;2024-02-21T14:46:38;100306.44;;;14.00;58.71
40490;BME280;26196;52.302;10.572;2024-02-21T14:50:40;100242.25;;;13.63;58.44
40490;BME280;26196;52.302;10.572;2024-02-21T14:54:43;100242.34;;;13.62;58.14
40490;BME280;26196;52.302;10.572;2024-02-21T14:58:50;100247.31;;;13.68;58.33
40490;BME280;26196;52.302;10.572;2024-02-21T15:02:56;100291.47;;;14.00;58.50
40490;BME280;26196;52.302;10.572;2024-02-21T15:06:58;100284.50;;;13.99;58.75
40490;BME280;26196;52.302;10.572;2024-02-21T15:11:01;100272.97;;;14.02;58.80
40490;BME280;26196;52.302;10.572;2024-02-21T15:15:04;100141.13;;;13.51;58.19
40490;BME280;26196;52.302;10.572;2024-02-21T15:19:05;100222.13;;;14.01;58.05
40490;BME280;26196;52.302;10.572;2024-02-21T15:23:08;100188.41;;;13.91;58.24
40490;BME280;26196;52.302;10.572;2024-02-21T15:27:09;100189.00;;;13.97;57.05
40490;BME280;26196;52.302;10.572;2024-02-21T15:31:19;100167.16;;;13.95;57.21
40490;BME280;26196;52.302;10.572;2024-02-21T15:35:23;100113.41;;;13.63;57.21
40490;BME280;26196;52.302;10.572;2024-02-21T15:39:26;100100.47;;;13.59;56.94
40490;BME280;26196;52.302;10.572;2024-02-21T15:43:28;100126.78;;;13.59;56.82
40490;BME280;26196;52.302;10.572;2024-02-21T15:47:30;100164.44;;;13.97;57.21
40490;BME280;26196;52.302;10.572;2024-02-21T15:51:32;100156.63;;;13.95;56.99
40490;BME280;26196;52.302;10.572;2024-02-21T15:55:36;100087.19;;;13.62;57.33
40490;BME280;26196;52.302;10.572;2024-02-21T15:59:38;100140.75;;;13.97;57.92
40490;BME280;26196;52.302;10.572;2024-02-21T16:03:40;100109.19;;;13.97;57.30
40490;BME280;26196;52.302;10.572;2024-02-21T16:07:43;100096.81;;;13.99;57.54
40490;BME280;26196;52.302;10.572;2024-02-21T16:11:44;100040.75;;;13.79;57.38
40490;BME280;26196;52.302;10.572;2024-02-21T16:15:46;100063.47;;;13.99;57.32
40490;BME280;26196;52.302;10.572;2024-02-21T16:19:48;100044.56;;;13.91;57.50
40490;BME280;26196;52.302;10.572;2024-02-21T16:23:50;100062.56;;;14.00;57.78
40490;BME280;26196;52.302;10.572;2024-02-21T16:27:52;99992.16;;;13.69;57.22
40490;BME280;26196;52.302;10.572;2024-02-21T16:31:53;99972.16;;;13.65;57.05
40490;BME280;26196;52.302;10.572;2024-02-21T16:35:55;100026.78;;;13.96;56.92
40490;BME280;26196;52.302;10.572;2024-02-21T16:39:57;99990.31;;;13.71;56.43
40490;BME280;26196;52.302;10.572;2024-02-21T16:43:59;100043.28;;;14.00;57.11
40490;BME280;26196;52.302;10.572;2024-02-21T16:48:02;99996.00;;;13.62;56.82
40490;BME280;26196;52.302;10.572;2024-02-21T16:52:06;99997.09;;;13.75;56.54
40490;BME280;26196;52.302;10.572;2024-02-21T16:56:09;99986.44;;;13.78;56.93
40490;BME280;26196;52.302;10.572;2024-02-21T17:00:11;99992.06;;;13.71;57.04
40490;BME280;26196;52.302;10.572;2024-02-21T17:04:14;100009.19;;;13.79;57.86
40490;BME280;26196;52.302;10.572;2024-02-21T17:08:16;100053.41;;;14.08;57.82
40490;BME280;26196;52.302;10.572;2024-02-21T17:12:17;99988.00;;;13.83;57.60
40490;BME280;26196;52.302;10.572;2024-02-21T17:16:20;99975.06;;;13.78;57.56
40490;BME280;26196;52.302;10.572;2024-02-21T17:20:21;100037.41;;;14.12;57.83
40490;BME280;26196;52.302;10.572;2024-02-21T17:24:23;100017.34;;;13.92;57.85
40490;BME280;26196;52.302;10.572;2024-02-21T17:28:25;100059.75;;;14.04;57.63
40490;BME280;26196;52.302;10.572;2024-02-21T17:32:26;100038.66;;;14.05;57.78
40490;BME280;26196;52.302;10.572;2024-02-21T17:36:28;100001.06;;;13.84;57.51
40490;BME280;26196;52.302;10.572;2024-02-21T17:40:30;99981.72;;;13.85;57.77
40490;BME280;26196;52.302;10.572;2024-02-21T17:44:32;99973.00;;;13.85;57.60
40490;BME280;26196;52.302;10.572;2024-02-21T17:48:33;99969.22;;;13.90;57.46
40490;BME280;26196;52.302;10.572;2024-02-21T17:52:36;99945.59;;;13.71;58.12
40490;BME280;26196;52.302;10.572;2024-02-21T17:56:37;100008.38;;;14.14;57.48
40490;BME280;26196;52.302;10.572;2024-02-21T18:00:39;100000.56;;;14.12;57.69
40490;BME280;26196;52.302;10.572;2024-02-21T18:04:45;99988.25;;;14.13;57.25
40490;BME280;26196;52.302;10.572;2024-02-21T18:08:47;99976.19;;;14.09;56.87
40490;BME280;26196;52.302;10.572;2024-02-21T18:12:49;99972.88;;;14.05;56.72
40490;BME280;26196;52.302;10.572;2024-02-21T18:16:50;99957.28;;;14.00;56.07
40490;BME280;26196;52.302;10.572;2024-02-21T18:20:52;99897.31;;;13.72;56.07
40490;BME280;26196;52.302;10.572;2024-02-21T18:24:55;99941.66;;;13.97;55.74
40490;BME280;26196;52.302;10.572;2024-02-21T18:28:58;99902.19;;;13.80;57.33
40490;BME280;26196;52.302;10.572;2024-02-21T18:33:01;99869.53;;;13.67;56.82
40490;BME280;26196;52.302;10.572;2024-02-21T18:37:04;99879.75;;;13.73;56.07
40490;BME280;26196;52.302;10.572;2024-02-21T18:41:05;99851.81;;;13.70;55.22
40490;BME280;26196;52.302;10.572;2024-02-21T18:45:09;99876.88;;;13.77;54.55
40490;BME280;26196;52.302;10.572;2024-02-21T18:49:11;99881.28;;;13.94;54.18
40490;BME280;26196;52.302;10.572;2024-02-21T18:53:13;99878.13;;;13.88;52.27
40490;BME280;26196;52.302;10.572;2024-02-21T18:57:16;99802.72;;;13.53;52.44
40490;BME280;26196;52.302;10.572;2024-02-21T19:01:18;99852.13;;;13.82;52.07
40490;BME280;26196;52.302;10.572;2024-02-21T19:05:22;99861.63;;;14.01;52.44
40490;BME280;26196;52.302;10.572;2024-02-21T19:09:24;99851.25;;;13.98;52.99
40490;BME280;26196;52.302;10.572;2024-02-21T19:13:26;99793.28;;;13.67;51.46
40490;BME280;26196;52.302;10.572;2024-02-21T19:17:27;99824.56;;;13.89;53.15
40490;BME280;26196;52.302;10.572;2024-02-21T19:21:30;99831.16;;;13.97;53.77
40490;BME280;26196;52.302;10.572;2024-02-21T19:25:32;99828.59;;;13.96;52.32
40490;BME280;26196;52.302;10.572;2024-02-21T19:29:33;99755.84;;;13.62;52.35
40490;BME280;26196;52.302;10.572;2024-02-21T19:33:35;99831.78;;;14.03;55.68
40490;BME280;26196;52.302;10.572;2024-02-21T19:37:39;99810.78;;;14.01;52.85
40490;BME280;26196;52.302;10.572;2024-02-21T19:41:40;99808.63;;;13.92;52.69
40490;BME280;26196;52.302;10.572;2024-02-21T19:45:42;99783.72;;;13.82;50.79
40490;BME280;26196;52.302;10.572;2024-02-21T19:49:44;99789.53;;;13.88;52.42
40490;BME280;26196;52.302;10.572;2024-02-21T19:53:46;99785.06;;;13.90;52.05
40490;BME280;26196;52.302;10.572;2024-02-21T19:57:51;99764.47;;;13.81;52.81
40490;BME280;26196;52.302;10.572;2024-02-21T20:01:53;99774.94;;;13.83;53.31
40490;BME280;26196;52.302;10.572;2024-02-21T20:05:55;99706.19;;;13.55;54.12
40490;BME280;26196;52.302;10.572;2024-02-21T20:09:57;99741.56;;;13.83;54.48
40490;BME280;26196;52.302;10.572;2024-02-21T20:13:58;99740.19;;;13.76;51.12
40490;BME280;26196;52.302;10.572;2024-02-21T20:18:04;99694.38;;;13.47;52.22
40490;BME280;26196;52.302;10.572;2024-02-21T20:22:05;99742.75;;;13.77;52.23
40490;BME280;26196;52.302;10.572;2024-02-21T20:26:07;99734.94;;;13.76;51.85
40490;BME280;26196;52.302;10.572;2024-02-21T20:30:09;99724.50;;;13.74;52.79
40490;BME280;26196;52.302;10.572;2024-02-21T20:34:14;99652.91;;;13.36;51.92
40490;BME280;26196;52.302;10.572;2024-02-21T20:38:17;99704.34;;;13.57;50.83
40490;BME280;26196;52.302;10.572;2024-02-21T20:42:19;99677.78;;;13.46;52.24
40490;BME280;26196;52.302;10.572;2024-02-21T20:46:23;99693.53;;;13.64;50.11
40490;BME280;26196;52.302;10.572;2024-02-21T20:50:24;99676.09;;;13.45;49.44
40490;BME280;26196;52.302;10.572;2024-02-21T20:54:26;99680.91;;;13.53;51.91
40490;BME280;26196;52.302;10.572;2024-02-21T20:58:28;99679.91;;;13.55;50.96